Terminal Aerodrome Forecast
Issued by NWS Wichita, KS

Home | Current Version | Previous Version | Graphics & Text | Print | Product List | Glossary On
Versions: 1 2 3 4 5 6 7 8 9 10 11 12 13 14 15 16 17 18 19 20 21
000
FTUS43 KICT 251354 AAB
TAFICT
TAF AMD
KICT 251354Z 2514/2612 06015G22KT P6SM VCSH SCT008 OVC100
     FM251800 07008KT P6SM VCTS SCT035CB BKN080
     FM252300 08006KT P6SM SCT150=

USA.gov is the U.S. government's official web portal to all federal, state and local government web resources and services.